Time;durP1;ratioP1;P1;durP2;ratioP2;P2;SDS_P1;SDS_P2;PMS_P1;PMS_P2;Temp;Humidity;BMP_temperature;BMP_pressure;BME280_temperature;BME280_humidity;BME280_pressure;Samples;Min_cycle;Max_cycle;Signal;HPM_P1;HPM_P2
2023/04/13 00:00:07;;;;;;;4.37;1.33;;;;;;;12.18;72.81;99331.91;5071624;28;20032;-70
2023/04/13 00:02:32;;;;;;;1.57;1.20;;;;;;;12.71;67.95;99330.63;5071697;28;20028;-69
2023/04/13 00:04:59;;;;;;;2.33;1.30;;;;;;;11.84;71.03;99329.75;5071778;28;20391;-69
2023/04/13 00:07:27;;;;;;;2.43;1.00;;;;;;;12.49;70.39;99329.84;5038338;28;20048;-70
2023/04/13 00:09:52;;;;;;;3.87;0.90;;;;;;;11.73;74.43;99330.19;5045967;28;20036;-69
2023/04/13 00:12:20;;;;;;;1.93;1.00;;;;;;;12.64;69.69;99326.56;5031606;28;20396;-70
2023/04/13 00:14:49;;;;;;;2.90;1.20;;;;;;;12.96;68.87;99332.19;5047785;28;20028;-71
2023/04/13 00:17:15;;;;;;;1.27;0.83;;;;;;;12.20;71.20;99334.50;5050608;28;20028;-70
2023/04/13 00:19:40;;;;;;;2.00;0.60;;;;;;;11.79;73.25;99334.34;5064860;28;20047;-70
2023/04/13 00:22:08;;;;;;;1.47;0.83;;;;;;;12.35;71.24;99333.88;5050999;28;20535;-69
2023/04/13 00:24:35;;;;;;;1.87;0.80;;;;;;;12.39;66.65;99329.34;5051373;28;20029;-70
2023/04/13 00:27:01;;;;;;;3.40;0.60;;;;;;;12.74;67.38;99327.00;5047152;28;20029;-70
2023/04/13 00:29:27;;;;;;;1.93;0.77;;;;;;;12.31;68.51;99332.28;5068170;28;20438;-70
2023/04/13 00:31:52;;;;;;;1.20;0.80;;;;;;;12.96;67.49;99323.47;5071807;28;20035;-69
2023/04/13 00:34:17;;;;;;;0.60;0.60;;;;;;;12.99;65.74;99325.94;5066225;28;20064;-70
2023/04/13 00:36:43;;;;;;;2.03;0.87;;;;;;;12.51;67.70;99328.81;5052294;28;20045;-70
2023/04/13 00:39:08;;;;;;;0.67;0.57;;;;;;;12.53;66.00;99332.25;5066458;28;20118;-70
2023/04/13 00:41:33;;;;;;;2.77;0.90;;;;;;;13.06;64.64;99328.25;5062202;28;20425;-70
2023/04/13 00:43:59;;;;;;;1.67;0.83;;;;;;;13.24;63.37;99333.56;5030615;28;20033;-71
2023/04/13 00:46:26;;;;;;;2.77;1.00;;;;;;;13.97;60.58;99331.13;5030465;28;20037;-70
2023/04/13 00:48:54;;;;;;;1.67;1.20;;;;;;;13.93;60.39;99332.22;5057264;28;20056;-70
2023/04/13 00:51:20;;;;;;;1.33;0.90;;;;;;;13.54;62.23;99341.00;5070144;28;20060;-69
2023/04/13 00:53:45;;;;;;;1.00;1.00;;;;;;;14.11;61.34;99342.72;5072120;28;20096;-70
2023/04/13 00:56:11;;;;;;;2.00;1.17;;;;;;;14.08;60.98;99334.09;5069554;28;20130;-69
2023/04/13 00:58:37;;;;;;;3.37;1.17;;;;;;;14.24;59.64;99336.81;5066291;28;20488;-70
2023/04/13 01:01:03;;;;;;;5.90;1.10;;;;;;;13.18;63.94;99355.69;5072093;28;20040;-70
2023/04/13 01:03:29;;;;;;;4.40;1.50;;;;;;;13.64;65.08;99342.31;5069703;28;20028;-69
2023/04/13 01:06:00;;;;;;;4.60;2.23;;;;;;;13.33;65.60;99348.91;5069832;28;20123;-70
2023/04/13 01:08:35;;;;;;;4.27;2.00;;;;;;;13.05;68.75;99352.75;5067727;28;20036;-70
2023/04/13 01:11:17;;;;;;;2.80;1.93;;;;;;;13.84;66.64;99348.41;5057939;28;20028;-71
2023/04/13 01:13:54;;;;;;;6.73;2.43;;;;;;;14.68;61.79;99351.31;5045434;28;20528;-68
2023/04/13 01:16:24;;;;;;;3.77;1.73;;;;;;;13.67;63.66;99363.16;5049245;28;20024;-69
2023/04/13 01:18:52;;;;;;;3.67;2.00;;;;;;;14.03;62.79;99362.34;5060955;28;20060;-68
2023/04/13 01:21:23;;;;;;;4.50;1.80;;;;;;;13.80;62.30;99363.44;5068234;28;20036;-68
2023/04/13 01:23:50;;;;;;;2.77;1.40;;;;;;;12.90;66.45;99374.41;5029609;28;20029;-69
2023/04/13 01:26:16;;;;;;;6.40;1.60;;;;;;;13.58;62.48;99374.06;5034501;28;20033;-68
2023/04/13 01:28:42;;;;;;;5.73;2.93;;;;;;;14.06;61.66;99377.97;5051045;28;20385;-69
2023/04/13 01:31:11;;;;;;;3.70;1.50;;;;;;;13.97;61.19;99394.19;5068556;28;20052;-69
2023/04/13 01:33:40;;;;;;;3.17;1.57;;;;;;;14.22;59.04;99387.75;5064885;28;20079;-68
2023/04/13 01:36:08;;;;;;;2.60;1.53;;;;;;;14.45;58.71;99391.03;5048965;28;20491;-68
2023/04/13 01:38:34;;;;;;;4.77;1.37;;;;;;;14.24;58.76;99397.25;5056244;28;20115;-68
2023/04/13 01:40:59;;;;;;;2.43;1.03;;;;;;;13.50;62.09;99407.69;5071243;28;20028;-69
2023/04/13 01:43:26;;;;;;;1.90;0.80;;;;;;;13.00;64.84;99420.31;5062572;28;20048;-68
2023/04/13 01:46:02;;;;;;;6.33;1.53;;;;;;;13.47;59.97;99419.19;5029293;28;20036;-68
2023/04/13 01:48:43;;;;;;;4.73;0.90;;;;;;;13.61;60.81;99420.34;5044537;28;20040;-68
2023/04/13 01:51:21;;;;;;;5.63;0.90;;;;;;;13.63;58.46;99424.59;5065879;28;20151;-68
2023/04/13 01:53:55;;;;;;;4.33;0.97;;;;;;;13.30;61.58;99427.78;5049623;28;20043;-68
2023/04/13 01:56:21;;;;;;;5.03;1.33;;;;;;;13.58;61.14;99437.09;5050933;28;20035;-69
2023/04/13 01:58:50;;;;;;;4.83;1.10;;;;;;;13.56;61.09;99437.16;5049299;28;20396;-68
2023/04/13 02:01:16;;;;;;;7.67;1.50;;;;;;;14.02;56.97;99444.69;5047123;28;20036;-69
2023/04/13 02:03:44;;;;;;;5.87;1.40;;;;;;;13.92;57.68;99438.19;5050264;28;20048;-68
2023/04/13 02:06:10;;;;;;;4.33;1.30;;;;;;;13.97;57.02;99453.72;5044241;28;20033;-68
2023/04/13 02:08:39;;;;;;;5.07;1.20;;;;;;;14.56;55.71;99457.09;5044052;28;20043;-69
2023/04/13 02:11:06;;;;;;;8.37;1.93;;;;;;;14.05;56.60;99454.22;5057487;28;20033;-68
2023/04/13 02:13:32;;;;;;;12.37;2.53;;;;;;;14.14;57.33;99460.84;5048801;28;20029;-68
2023/04/13 02:15:58;;;;;;;7.87;1.40;;;;;;;14.21;55.48;99457.84;5049171;28;20029;-69
2023/04/13 02:18:23;;;;;;;8.70;1.43;;;;;;;14.48;54.61;99465.34;5053374;28;20569;-68
2023/04/13 02:21:00;;;;;;;6.13;1.30;;;;;;;14.45;54.96;99465.47;5068105;28;20024;-68
2023/04/13 02:23:25;;;;;;;11.03;1.60;;;;;;;14.59;54.21;99467.47;5068142;28;20028;-68
2023/04/13 02:25:50;;;;;;;10.33;1.47;;;;;;;14.14;55.90;99466.09;5069766;28;20030;-68
2023/04/13 02:28:16;;;;;;;8.20;1.10;;;;;;;13.84;56.45;99479.72;5052224;28;20039;-68
2023/04/13 02:30:41;;;;;;;10.53;1.30;;;;;;;13.62;58.76;99482.44;5069659;28;20074;-68
2023/04/13 02:33:08;;;;;;;9.87;1.47;;;;;;;14.14;55.97;99481.88;5068825;28;20059;-69
2023/04/13 02:35:37;;;;;;;7.23;1.20;;;;;;;13.22;58.58;99495.47;5062984;28;20044;-69
2023/04/13 02:38:08;;;;;;;10.27;1.50;;;;;;;13.27;61.11;99496.16;5049876;28;20032;-69
2023/04/13 02:40:35;;;;;;;4.57;1.10;;;;;;;13.58;59.90;99487.81;5067824;28;20032;-68
2023/04/13 02:43:00;;;;;;;12.13;1.40;;;;;;;13.68;58.39;99498.78;5032139;28;20124;-68
2023/04/13 02:45:27;;;;;;;8.53;1.00;;;;;;;13.87;56.92;99495.31;5028116;28;20124;-68
2023/04/13 02:47:52;;;;;;;6.30;1.27;;;;;;;14.03;55.35;99495.50;5044965;28;20025;-68
2023/04/13 02:50:18;;;;;;;8.80;1.93;;;;;;;13.27;58.38;99498.78;5059869;28;20556;-68
2023/04/13 02:52:45;;;;;;;8.70;2.00;;;;;;;13.85;58.10;99507.69;5049958;28;20088;-69
2023/04/13 02:55:11;;;;;;;7.73;2.03;;;;;;;13.67;58.00;99504.94;5047148;28;20052;-68
2023/04/13 02:57:37;;;;;;;9.37;2.47;;;;;;;14.46;55.40;99503.16;5049037;28;20033;-68
2023/04/13 03:00:09;;;;;;;16.90;3.23;;;;;;;13.60;57.66;99514.03;5065245;28;20032;-68
2023/04/13 03:02:35;;;;;;;11.55;2.40;;;;;;;13.07;60.45;99520.56;5069158;28;20431;-68
2023/04/13 03:05:04;;;;;;;13.93;2.63;;;;;;;13.59;60.17;99517.56;5037093;28;20049;-68
2023/04/13 03:07:31;;;;;;;14.37;2.47;;;;;;;13.37;60.73;99526.34;5028793;28;20052;-69
2023/04/13 03:09:56;;;;;;;8.90;2.57;;;;;;;14.66;55.90;99520.63;5029638;28;20091;-69
2023/04/13 03:12:22;;;;;;;10.63;2.13;;;;;;;13.66;55.76;99526.88;5047710;28;20028;-68
2023/04/13 03:14:48;;;;;;;17.20;2.60;;;;;;;14.05;56.84;99531.28;5048212;28;20025;-68
2023/04/13 03:17:15;;;;;;;13.03;2.80;;;;;;;13.99;56.53;99535.97;5046292;28;20028;-68
2023/04/13 03:19:41;;;;;;;12.90;2.77;;;;;;;14.05;57.56;99541.78;5048667;28;20033;-68
2023/04/13 03:22:07;;;;;;;8.87;2.33;;;;;;;14.73;54.93;99536.06;5047523;28;20104;-68
2023/04/13 03:24:34;;;;;;;9.23;2.73;;;;;;;13.27;59.21;99559.13;5049470;28;20021;-68
2023/04/13 03:26:59;;;;;;;11.77;2.23;;;;;;;13.49;58.03;99550.34;5048230;28;20052;-68
2023/04/13 03:29:24;;;;;;;6.90;2.37;;;;;;;13.47;57.55;99549.59;5056833;28;20052;-68
2023/04/13 03:31:50;;;;;;;9.63;2.50;;;;;;;12.82;60.24;99557.44;5052755;28;20103;-69
2023/04/13 03:34:17;;;;;;;10.37;2.00;;;;;;;12.84;62.14;99572.16;5044917;28;20033;-68
2023/04/13 03:36:42;;;;;;;8.30;1.97;;;;;;;13.25;59.40;99576.69;5031526;28;21564;-68
2023/04/13 03:39:07;;;;;;;11.03;2.40;;;;;;;12.95;60.11;99574.38;5057625;28;20496;-68
2023/04/13 03:41:33;;;;;;;9.27;1.67;;;;;;;12.92;59.36;99579.75;5073802;28;20492;-68
2023/04/13 03:43:58;;;;;;;6.57;1.87;;;;;;;13.66;57.92;99582.00;5056608;28;20511;-68
2023/04/13 03:46:24;;;;;;;11.73;1.80;;;;;;;13.20;59.84;99595.25;5051745;28;20503;-68
2023/04/13 03:48:50;;;;;;;10.93;1.93;;;;;;;13.44;58.19;99586.47;5055805;28;20023;-69
2023/04/13 03:51:15;;;;;;;13.17;1.83;;;;;;;14.13;55.72;99591.34;5071316;28;20099;-68
2023/04/13 03:53:41;;;;;;;6.77;1.50;;;;;;;13.03;58.57;99602.94;5034051;28;20583;-68
2023/04/13 03:56:06;;;;;;;15.23;2.00;;;;;;;13.54;56.62;99603.53;5051818;28;20040;-69
2023/04/13 03:58:32;;;;;;;7.00;1.40;;;;;;;13.52;56.11;99615.88;5045402;28;20142;-68
2023/04/13 04:00:57;;;;;;;8.23;1.67;;;;;;;13.38;57.71;99625.16;5071569;28;20396;-68
2023/04/13 04:03:24;;;;;;;8.73;1.60;;;;;;;13.21;55.51;99612.69;5042254;28;20399;-68
2023/04/13 04:05:50;;;;;;;5.43;1.40;;;;;;;12.92;57.24;99621.72;5032936;28;20100;-67
2023/04/13 04:08:16;;;;;;;5.90;1.67;;;;;;;13.46;56.28;99626.63;5047886;28;20030;-68
2023/04/13 04:10:41;;;;;;;8.10;2.67;;;;;;;14.18;54.47;99622.72;5067992;28;20029;-68
2023/04/13 04:13:06;;;;;;;5.80;1.67;;;;;;;14.56;52.12;99625.38;5044045;28;20060;-68
2023/04/13 04:15:32;;;;;;;8.03;1.80;;;;;;;13.35;55.45;99620.06;5033852;28;20039;-68
2023/04/13 04:17:58;;;;;;;7.97;1.20;;;;;;;13.93;52.73;99620.28;5051593;28;20035;-68
2023/04/13 04:20:23;;;;;;;5.00;1.30;;;;;;;13.64;54.79;99625.88;5064575;28;20424;-69
2023/04/13 04:22:50;;;;;;;9.67;1.33;;;;;;;13.67;53.04;99628.34;5072465;28;20111;-68
2023/04/13 04:25:21;;;;;;;8.60;1.13;;;;;;;14.21;51.43;99619.94;5072569;28;20025;-68
2023/04/13 04:27:49;;;;;;;8.83;1.30;;;;;;;13.31;54.19;99628.94;5072818;28;20425;-68
2023/04/13 04:30:17;;;;;;;6.13;1.10;;;;;;;13.86;52.08;99638.06;5068810;28;20059;-68
2023/04/13 04:32:42;;;;;;;12.63;1.80;;;;;;;14.18;51.98;99635.84;5053067;28;20516;-68
2023/04/13 04:35:10;;;;;;;3.93;1.10;;;;;;;14.69;52.48;99628.34;5031899;28;20029;-69
2023/04/13 04:37:36;;;;;;;10.47;1.80;;;;;;;13.68;53.42;99637.94;5052747;28;20029;-68
2023/04/13 04:40:11;;;;;;;2.20;0.90;;;;;;;12.75;55.35;99639.84;5050076;28;20031;-69
2023/04/13 04:42:37;;;;;;;5.57;1.00;;;;;;;14.09;52.92;99637.06;5051077;28;20436;-68
2023/04/13 04:45:07;;;;;;;4.87;1.07;;;;;;;14.98;51.21;99648.00;5050817;28;20023;-68
2023/04/13 04:47:36;;;;;;;5.50;1.47;;;;;;;14.53;53.04;99659.69;5038834;28;20029;-69
2023/04/13 04:50:02;;;;;;;8.23;1.20;;;;;;;12.82;57.41;99652.69;5051965;28;20031;-69
2023/04/13 04:52:28;;;;;;;4.50;1.20;;;;;;;13.21;57.92;99656.44;5050839;28;20045;-69
2023/04/13 04:54:53;;;;;;;8.57;1.60;;;;;;;13.84;57.07;99663.56;5059318;28;20072;-70
2023/04/13 04:57:19;;;;;;;9.47;1.80;;;;;;;13.29;57.59;99667.47;5071918;28;20020;-70
2023/04/13 04:59:44;;;;;;;6.23;1.50;;;;;;;14.17;56.47;99670.91;5072027;28;20545;-69
2023/04/13 05:02:10;;;;;;;7.67;1.70;;;;;;;12.68;62.50;99687.28;5039832;28;20028;-69
2023/04/13 05:04:36;;;;;;;7.10;2.10;;;;;;;12.77;62.69;99685.25;5053090;28;20028;-69
2023/04/13 05:07:01;;;;;;;7.20;1.50;;;;;;;12.80;63.34;99683.34;5050819;28;20511;-69
2023/04/13 05:09:27;;;;;;;6.47;1.73;;;;;;;13.82;58.79;99691.63;5049247;28;20037;-70
2023/04/13 05:11:52;;;;;;;8.23;1.97;;;;;;;14.49;57.31;99687.03;5043659;28;20469;-69
2023/04/13 05:14:18;;;;;;;5.80;1.70;;;;;;;14.14;56.37;99698.19;5040247;28;20032;-69
2023/04/13 05:16:43;;;;;;;3.67;1.30;;;;;;;13.98;58.45;99694.50;5052353;28;20025;-69
2023/04/13 05:19:09;;;;;;;7.70;1.33;;;;;;;13.05;63.47;99696.41;5051687;28;20395;-69
2023/04/13 05:21:35;;;;;;;10.67;2.03;;;;;;;13.36;60.69;99708.34;5049822;28;20415;-69
2023/04/13 05:24:00;;;;;;;8.30;1.83;;;;;;;12.97;63.76;99702.81;5053653;28;20093;-70
2023/04/13 05:26:27;;;;;;;9.47;1.40;;;;;;;13.06;63.78;99713.84;5069832;28;20020;-71
2023/04/13 05:28:53;;;;;;;3.57;0.90;;;;;;;12.63;65.48;99710.19;5070443;28;20021;-71
2023/04/13 05:31:19;;;;;;;3.73;1.13;;;;;;;13.49;63.43;99705.22;5048029;28;20058;-70
2023/04/13 05:33:45;;;;;;;2.90;0.87;;;;;;;12.61;63.89;99706.78;5029424;28;20025;-69
2023/04/13 05:36:10;;;;;;;4.50;0.97;;;;;;;12.99;64.22;99712.34;5049530;28;20131;-69
2023/04/13 05:38:36;;;;;;;5.13;0.87;;;;;;;13.02;63.15;99716.63;5069770;28;20075;-69
2023/04/13 05:41:02;;;;;;;5.17;1.10;;;;;;;13.60;61.95;99716.19;5054066;28;20032;-70
2023/04/13 05:43:27;;;;;;;10.03;1.40;;;;;;;13.35;63.81;99714.53;5049928;28;20024;-70
2023/04/13 05:45:52;;;;;;;8.57;1.17;;;;;;;13.94;59.79;99732.31;5066325;28;20040;-69
2023/04/13 05:48:18;;;;;;;6.30;1.40;;;;;;;13.97;60.03;99737.44;5060278;28;20028;-69
2023/04/13 05:50:43;;;;;;;11.07;2.30;;;;;;;13.55;61.89;99741.75;5050343;28;20033;-69
2023/04/13 05:53:09;;;;;;;5.23;1.10;;;;;;;14.33;59.74;99740.28;5048481;28;20059;-70
2023/04/13 05:55:35;;;;;;;6.60;1.27;;;;;;;13.87;61.01;99757.97;5031477;28;20034;-70
2023/04/13 05:58:02;;;;;;;7.87;1.37;;;;;;;13.49;62.04;99749.84;5029616;28;20025;-69
2023/04/13 06:00:28;;;;;;;8.57;1.47;;;;;;;13.96;62.65;99747.09;5037537;28;20032;-70
2023/04/13 06:02:54;;;;;;;5.67;1.67;;;;;;;14.03;61.03;99759.06;5050707;28;20084;-70
2023/04/13 06:05:21;;;;;;;6.83;1.40;;;;;;;13.27;63.60;99758.56;5063851;28;20392;-70
2023/04/13 06:07:46;;;;;;;9.47;1.50;;;;;;;13.84;64.33;99755.47;5047676;28;20025;-70
2023/04/13 06:10:14;;;;;;;16.50;1.67;;;;;;;14.12;62.09;99762.22;5049844;28;20017;-69
2023/04/13 06:12:40;;;;;;;12.33;1.90;;;;;;;13.96;63.15;99768.13;5048387;28;20028;-69
2023/04/13 06:15:06;;;;;;;8.60;1.67;;;;;;;13.20;67.72;99778.03;5049281;28;20036;-69
2023/04/13 06:17:32;;;;;;;15.47;2.37;;;;;;;13.86;64.61;99777.28;5037547;28;20029;-69
2023/04/13 06:19:57;;;;;;;8.67;1.80;;;;;;;13.81;64.95;99789.75;5029784;28;20048;-69
2023/04/13 06:22:22;;;;;;;16.37;3.03;;;;;;;14.20;64.92;99784.63;5029046;28;20583;-69
2023/04/13 06:24:49;;;;;;;13.77;1.97;;;;;;;13.21;67.67;99795.50;5054143;28;20029;-69
2023/04/13 06:27:15;;;;;;;27.10;2.87;;;;;;;13.33;67.13;99804.69;5043854;28;20028;-69
2023/04/13 06:29:40;;;;;;;10.33;2.43;;;;;;;12.50;69.19;99830.34;5048837;28;20551;-70
2023/04/13 06:32:06;;;;;;;11.27;2.30;;;;;;;13.22;67.52;99818.22;5047393;28;20028;-70
2023/04/13 06:34:32;;;;;;;11.43;2.33;;;;;;;12.93;66.89;99828.00;5050415;28;20596;-70
2023/04/13 06:36:58;;;;;;;11.97;1.60;;;;;;;12.96;68.42;99806.91;5070009;28;20048;-70
2023/04/13 06:39:23;;;;;;;10.53;2.07;;;;;;;13.04;68.03;99810.09;5047942;28;20599;-70
2023/04/13 06:41:49;;;;;;;15.70;1.83;;;;;;;13.94;62.74;99811.13;5035762;28;20033;-69
2023/04/13 06:44:14;;;;;;;10.93;1.70;;;;;;;14.06;62.83;99810.63;5030484;28;20035;-70
2023/04/13 06:46:40;;;;;;;10.83;2.27;;;;;;;12.88;67.90;99819.44;5046906;28;20028;-70
2023/04/13 06:49:06;;;;;;;15.20;2.47;;;;;;;13.78;65.63;99822.25;5049314;28;20025;-70
2023/04/13 06:51:31;;;;;;;16.97;3.03;;;;;;;13.28;67.43;99838.97;5046790;28;20049;-70
2023/04/13 06:53:57;;;;;;;20.73;3.10;;;;;;;14.03;64.81;99837.88;5048872;28;20104;-69
2023/04/13 06:56:23;;;;;;;16.77;1.93;;;;;;;13.83;65.02;99841.28;5052776;28;20031;-69
2023/04/13 06:58:48;;;;;;;22.37;2.80;;;;;;;13.72;68.67;99839.09;5048625;28;20020;-69
2023/04/13 07:01:14;;;;;;;22.30;2.63;;;;;;;13.95;65.95;99855.72;5048978;28;20112;-69
2023/04/13 07:03:40;;;;;;;20.17;2.60;;;;;;;13.47;69.27;99854.94;5048609;28;20052;-70
2023/04/13 07:06:07;;;;;;;13.53;2.83;;;;;;;13.53;68.40;99859.09;5060943;28;20463;-70
2023/04/13 07:08:33;;;;;;;14.30;2.03;;;;;;;12.69;71.04;99862.06;5047689;28;20033;-70
2023/04/13 07:10:59;;;;;;;9.67;2.00;;;;;;;13.47;64.19;99864.56;5042410;28;20078;-69
2023/04/13 07:13:25;;;;;;;20.70;3.43;;;;;;;13.57;67.44;99865.94;5048267;28;20036;-69
2023/04/13 07:15:51;;;;;;;16.80;4.63;;;;;;;13.36;66.18;99878.09;5046658;28;20489;-69
2023/04/13 07:18:16;;;;;;;16.40;1.73;;;;;;;13.77;64.98;99877.47;5033431;28;20048;-68
2023/04/13 07:20:41;;;;;;;11.50;3.40;;;;;;;13.00;66.01;99875.84;5047599;28;20035;-69
2023/04/13 07:23:08;;;;;;;17.33;2.33;;;;;;;14.34;61.91;99881.34;5060748;28;20644;-69
2023/04/13 07:25:34;;;;;;;13.83;2.30;;;;;;;13.15;64.40;99892.81;5029553;28;20029;-69
2023/04/13 07:27:59;;;;;;;15.43;2.80;;;;;;;13.54;62.28;99897.56;5037306;28;20025;-68
2023/04/13 07:30:25;;;;;;;12.27;2.53;;;;;;;13.63;62.63;99891.97;5026707;28;20381;-68
2023/04/13 07:32:51;;;;;;;15.93;2.07;;;;;;;14.27;59.84;99898.25;5038882;28;20041;-67
2023/04/13 07:35:17;;;;;;;16.37;2.70;;;;;;;13.72;61.97;99902.13;5045316;28;20033;-68
2023/04/13 07:37:43;;;;;;;12.77;2.10;;;;;;;15.09;56.64;99908.88;5041835;28;20522;-68
2023/04/13 07:40:10;;;;;;;16.27;2.37;;;;;;;14.65;56.98;99919.53;5038971;28;20080;-69
2023/04/13 07:42:35;;;;;;;14.43;2.63;;;;;;;13.97;57.55;99922.22;5047207;28;20033;-68
2023/04/13 07:45:01;;;;;;;17.63;2.83;;;;;;;13.81;56.83;99926.34;5043792;28;20472;-68
2023/04/13 07:47:27;;;;;;;11.27;1.63;;;;;;;14.16;56.02;99935.47;5045264;28;20036;-69
2023/04/13 07:49:53;;;;;;;19.70;2.60;;;;;;;15.08;54.81;99944.03;5025827;28;20017;-68
2023/04/13 07:52:19;;;;;;;16.73;2.10;;;;;;;14.43;54.90;99946.66;5045964;28;20041;-68
2023/04/13 07:54:44;;;;;;;16.73;2.43;;;;;;;15.61;52.05;99939.13;5047745;28;20025;-68
2023/04/13 07:57:10;;;;;;;22.67;2.63;;;;;;;14.14;54.54;99960.13;5056001;28;20354;-69
2023/04/13 07:59:35;;;;;;;6.50;1.43;;;;;;;14.33;54.22;99961.09;5046613;28;20037;-68
2023/04/13 08:02:00;;;;;;;4.67;1.53;;;;;;;13.95;54.46;99955.56;5045522;28;20626;-68
2023/04/13 08:04:26;;;;;;;9.43;1.63;;;;;;;13.35;56.31;99973.47;5066228;28;20025;-69
2023/04/13 08:06:52;;;;;;;11.90;1.73;;;;;;;14.58;53.02;99965.38;5067572;28;20056;-68
2023/04/13 08:09:18;;;;;;;16.40;1.83;;;;;;;14.69;52.64;99984.25;5047891;28;20021;-68
2023/04/13 08:11:43;;;;;;;17.47;2.90;;;;;;;13.59;55.37;99984.91;5041256;28;20056;-68
2023/04/13 08:14:10;;;;;;;14.27;1.90;;;;;;;14.83;53.51;99986.31;5043927;28;20033;-68
2023/04/13 08:16:36;;;;;;;12.30;1.70;;;;;;;14.46;51.64;99989.53;5048517;28;20108;-69
2023/04/13 08:19:02;;;;;;;18.93;2.10;;;;;;;14.57;51.80;100000.47;5056210;28;20158;-68
2023/04/13 08:21:28;;;;;;;16.57;2.33;;;;;;;15.58;50.43;99999.84;5059866;28;20029;-68
2023/04/13 08:23:55;;;;;;;16.40;4.27;;;;;;;16.20;49.70;99999.72;5032047;28;20021;-69
2023/04/13 08:26:21;;;;;;;11.07;2.57;;;;;;;14.96;49.21;100015.63;5052900;28;20035;-68
2023/04/13 08:28:47;;;;;;;13.37;2.03;;;;;;;16.69;45.94;99992.09;5070931;28;20021;-68
2023/04/13 08:31:13;;;;;;;10.30;1.67;;;;;;;16.89;45.01;100000.84;5068223;28;20047;-68
2023/04/13 08:33:39;;;;;;;12.93;1.57;;;;;;;17.54;43.44;99998.41;5057309;28;20028;-68
2023/04/13 08:36:05;;;;;;;17.63;2.10;;;;;;;17.68;43.32;100000.34;5050432;28;20032;-68
2023/04/13 08:38:32;;;;;;;15.02;2.25;;;;;;;18.64;41.82;100005.72;5049313;28;20511;-68
2023/04/13 08:40:57;;;;;;;13.38;1.65;;;;;;;16.36;43.80;100008.63;5056698;28;20051;-68
2023/04/13 08:43:23;;;;;;;12.05;1.60;;;;;;;15.66;46.19;100024.06;5070325;28;20391;-68
2023/04/13 08:45:49;;;;;;;15.80;2.00;;;;;;;16.11;45.18;100027.34;5048655;28;20374;-67
2023/04/13 08:48:18;;;;;;;15.37;1.70;;;;;;;16.38;45.89;100027.84;5050435;28;20078;-68
2023/04/13 08:50:44;;;;;;;18.10;2.27;;;;;;;16.38;45.65;100032.28;5051600;28;20035;-68
2023/04/13 08:53:10;;;;;;;19.33;2.03;;;;;;;16.48;45.74;100040.63;5065215;28;20420;-68
2023/04/13 08:55:44;;;;;;;12.63;2.17;;;;;;;15.67;46.68;100056.53;5051576;28;20021;-69
2023/04/13 08:58:18;;;;;;;9.70;1.80;;;;;;;16.43;43.94;100057.50;5049866;28;20122;-69
2023/04/13 09:00:46;;;;;;;24.47;2.97;;;;;;;16.56;44.45;100062.22;5045182;28;20037;-68
2023/04/13 09:03:14;;;;;;;14.37;2.43;;;;;;;16.16;44.71;100069.34;5053209;28;20029;-68
2023/04/13 09:05:41;;;;;;;12.73;2.03;;;;;;;17.52;43.12;100057.56;5070154;28;20035;-68
2023/04/13 09:08:08;;;;;;;18.03;3.40;;;;;;;16.74;42.57;100066.59;5069049;28;20392;-68
2023/04/13 09:10:34;;;;;;;10.47;1.57;;;;;;;16.78;42.86;100068.16;5070240;28;20029;-68
2023/04/13 09:13:00;;;;;;;9.07;2.00;;;;;;;15.95;43.07;100090.47;5066492;28;20132;-68
2023/04/13 09:15:25;;;;;;;13.80;1.97;;;;;;;16.18;43.68;100088.56;5045152;28;20059;-68
2023/04/13 09:17:52;;;;;;;10.70;2.23;;;;;;;17.17;42.36;100086.59;5057130;28;20035;-69
2023/04/13 09:20:22;;;;;;;14.47;2.30;;;;;;;18.73;40.82;100078.50;5052375;28;20054;-68
2023/04/13 09:22:49;;;;;;;12.90;2.07;;;;;;;17.07;42.74;100100.25;5048970;28;20487;-69
2023/04/13 09:25:27;;;;;;;10.80;1.80;;;;;;;16.31;42.85;100108.19;5069891;28;20024;-69
2023/04/13 09:27:53;;;;;;;15.53;2.17;;;;;;;16.66;42.90;100110.13;5050597;28;20032;-68
2023/04/13 09:30:20;;;;;;;9.87;1.63;;;;;;;17.05;42.82;100112.69;5039577;28;20485;-68
2023/04/13 09:32:46;;;;;;;13.47;2.23;;;;;;;16.37;43.93;100114.97;5038945;28;20119;-68
2023/04/13 09:35:12;;;;;;;10.07;1.70;;;;;;;16.71;43.41;100119.53;5044790;28;20078;-68
2023/04/13 09:37:41;;;;;;;9.20;1.97;;;;;;;16.09;44.64;100140.78;5049626;28;20492;-68
2023/04/13 09:40:12;;;;;;;10.97;1.40;;;;;;;15.98;44.39;100132.50;5050468;28;20029;-68
2023/04/13 09:42:53;;;;;;;9.40;1.90;;;;;;;15.27;44.98;100138.06;5048914;28;20040;-68
2023/04/13 09:45:18;;;;;;;11.07;2.73;;;;;;;16.05;44.18;100151.53;5050276;28;20024;-68
2023/04/13 09:47:44;;;;;;;16.83;2.20;;;;;;;16.31;44.70;100158.28;5049480;28;20036;-68
2023/04/13 09:50:27;;;;;;;11.63;1.77;;;;;;;15.95;44.49;100156.34;5043712;28;20402;-68
2023/04/13 09:53:04;;;;;;;17.92;2.05;;;;;;;15.60;44.78;100161.28;5049639;28;20033;-68
2023/04/13 09:55:34;;;;;;;10.53;1.70;;;;;;;15.71;45.39;100159.06;5049821;28;20055;-68
2023/04/13 09:58:10;;;;;;;14.13;1.63;;;;;;;15.66;44.96;100175.97;5046993;28;20024;-69
2023/04/13 10:00:41;;;;;;;10.27;1.77;;;;;;;15.56;45.05;100178.97;5048256;28;20040;-68
2023/04/13 10:03:10;;;;;;;8.33;1.37;;;;;;;17.29;42.32;100167.88;5048266;28;20024;-68
2023/04/13 10:05:36;;;;;;;10.70;1.50;;;;;;;17.09;40.97;100177.59;5049746;28;20020;-68
2023/04/13 10:08:01;;;;;;;13.20;2.43;;;;;;;17.70;40.77;100172.88;5047497;28;20090;-68
2023/04/13 10:10:29;;;;;;;15.13;2.08;;;;;;;18.55;39.61;100180.94;5040189;28;20397;-68
2023/04/13 10:12:59;;;;;;;14.97;1.90;;;;;;;18.06;39.20;100174.63;5049449;28;20112;-68
2023/04/13 10:15:46;;;;;;;9.93;1.45;;;;;;;17.89;39.99;100198.41;5046987;28;20037;-68
2023/04/13 10:18:20;;;;;;;22.92;1.77;;;;;;;17.93;39.57;100202.66;5039041;28;20036;-69
2023/04/13 10:20:47;;;;;;;14.60;2.15;;;;;;;18.01;39.28;100200.47;5050086;28;20037;-69
2023/04/13 10:23:13;;;;;;;12.18;1.80;;;;;;;17.58;40.03;100213.97;5049433;28;20365;-69
2023/04/13 10:25:49;;;;;;;13.85;2.05;;;;;;;18.23;38.16;100201.97;5061052;28;20033;-68
2023/04/13 10:28:14;;;;;;;11.48;1.65;;;;;;;17.32;39.87;100223.19;5050663;28;20032;-68
2023/04/13 10:30:48;;;;;;;11.38;2.10;;;;;;;17.21;40.38;100231.59;5033736;28;20044;-68
2023/04/13 10:33:14;;;;;;;12.52;1.60;;;;;;;16.53;40.52;100231.19;5047017;28;20404;-68
2023/04/13 10:35:39;;;;;;;10.27;1.60;;;;;;;16.94;41.01;100249.63;5048832;28;20029;-68
2023/04/13 10:38:07;;;;;;;6.43;1.38;;;;;;;16.66;41.48;100253.44;5058830;28;20138;-69
2023/04/13 10:40:46;;;;;;;14.10;2.30;;;;;;;17.68;40.18;100248.78;5062241;28;20441;-68
2023/04/13 10:43:11;;;;;;;10.30;1.90;;;;;;;18.06;39.74;100253.94;5056225;28;20037;-69
2023/04/13 10:45:37;;;;;;;14.73;2.17;;;;;;;18.33;39.23;100256.13;5036519;28;20087;-68
2023/04/13 10:48:04;;;;;;;14.20;3.10;;;;;;;17.26;41.01;100273.66;5046891;28;20112;-69
2023/04/13 10:50:30;;;;;;;12.40;1.80;;;;;;;16.57;41.81;100274.97;5042014;28;20029;-69
2023/04/13 10:52:56;;;;;;;13.67;2.33;;;;;;;17.02;41.74;100271.25;5047633;28;20056;-69
2023/04/13 10:55:24;;;;;;;18.40;2.37;;;;;;;17.20;40.54;100284.50;5047765;28;20039;-69
2023/04/13 10:57:50;;;;;;;9.63;1.80;;;;;;;17.77;40.57;100295.88;5048329;28;20054;-69
2023/04/13 11:00:20;;;;;;;10.93;1.70;;;;;;;16.95;41.29;100288.25;5046716;28;20048;-68
2023/04/13 11:02:48;;;;;;;12.83;2.13;;;;;;;16.75;40.88;100295.25;5048181;28;20063;-69
2023/04/13 11:05:15;;;;;;;21.03;2.70;;;;;;;16.91;40.85;100305.16;5048876;28;20025;-69
2023/04/13 11:07:44;;;;;;;14.27;2.10;;;;;;;16.64;41.74;100292.25;5047349;28;20033;-69
2023/04/13 11:10:10;;;;;;;13.73;2.30;;;;;;;16.54;41.11;100297.06;5049190;28;20020;-69
2023/04/13 11:12:35;;;;;;;14.83;2.80;;;;;;;16.58;41.53;100295.13;5048213;28;20541;-69
2023/04/13 11:15:00;;;;;;;15.07;1.90;;;;;;;17.40;40.22;100302.06;5048875;28;20091;-69
2023/04/13 11:17:26;;;;;;;12.17;2.30;;;;;;;17.18;40.03;100303.06;5048880;28;20184;-69
2023/04/13 11:19:53;;;;;;;22.37;2.93;;;;;;;16.75;40.22;100305.81;5064823;28;20064;-69
2023/04/13 11:22:26;;;;;;;12.13;2.03;;;;;;;17.74;39.68;100317.16;5046867;28;20033;-69
2023/04/13 11:24:52;;;;;;;10.23;1.80;;;;;;;17.49;39.73;100311.34;5047923;28;20025;-69